sensor_id;sensor_type;location;lat;lon;timestamp;temperature;humidity
12849;DHT22;6493;50.928;7.172;2023-07-24T00:00:03;15.60;60.60
12849;DHT22;6493;50.928;7.172;2023-07-24T00:05:08;15.60;60.70
12849;DHT22;6493;50.928;7.172;2023-07-24T00:10:12;15.50;60.60
12849;DHT22;6493;50.928;7.172;2023-07-24T00:15:17;15.60;60.80
12849;DHT22;6493;50.928;7.172;2023-07-24T00:20:21;15.50;60.80
12849;DHT22;6493;50.928;7.172;2023-07-24T00:25:26;15.50;60.70
12849;DHT22;6493;50.928;7.172;2023-07-24T00:30:31;15.50;60.90
12849;DHT22;6493;50.928;7.172;2023-07-24T00:35:35;15.50;61.10
12849;DHT22;6493;50.928;7.172;2023-07-24T00:40:39;15.50;60.90
12849;DHT22;6493;50.928;7.172;2023-07-24T00:45:45;15.50;60.90
12849;DHT22;6493;50.928;7.172;2023-07-24T00:50:50;15.50;61.20
12849;DHT22;6493;50.928;7.172;2023-07-24T00:55:53;15.40;61.00
12849;DHT22;6493;50.928;7.172;2023-07-24T01:00:59;15.40;61.00
12849;DHT22;6493;50.928;7.172;2023-07-24T01:06:03;15.40;61.30
12849;DHT22;6493;50.928;7.172;2023-07-24T01:11:11;15.40;61.20
12849;DHT22;6493;50.928;7.172;2023-07-24T01:16:21;15.40;61.60
12849;DHT22;6493;50.928;7.172;2023-07-24T01:21:36;15.40;61.50
12849;DHT22;6493;50.928;7.172;2023-07-24T01:26:43;15.40;61.70
12849;DHT22;6493;50.928;7.172;2023-07-24T01:31:47;15.30;61.20
12849;DHT22;6493;50.928;7.172;2023-07-24T01:36:51;15.30;61.20
12849;DHT22;6493;50.928;7.172;2023-07-24T01:41:56;15.30;61.30
12849;DHT22;6493;50.928;7.172;2023-07-24T01:47:00;15.30;62.20
12849;DHT22;6493;50.928;7.172;2023-07-24T01:52:04;15.20;61.30
12849;DHT22;6493;50.928;7.172;2023-07-24T01:57:09;15.20;61.40
12849;DHT22;6493;50.928;7.172;2023-07-24T02:02:13;15.20;61.60
12849;DHT22;6493;50.928;7.172;2023-07-24T02:07:16;15.20;61.60
12849;DHT22;6493;50.928;7.172;2023-07-24T02:12:21;15.20;61.70
12849;DHT22;6493;50.928;7.172;2023-07-24T02:17:25;15.20;61.80
12849;DHT22;6493;50.928;7.172;2023-07-24T02:22:29;15.20;61.90
12849;DHT22;6493;50.928;7.172;2023-07-24T02:27:34;15.20;61.80
12849;DHT22;6493;50.928;7.172;2023-07-24T02:32:37;15.20;62.10
12849;DHT22;6493;50.928;7.172;2023-07-24T02:37:41;15.20;62.10
12849;DHT22;6493;50.928;7.172;2023-07-24T02:42:47;15.20;62.10
12849;DHT22;6493;50.928;7.172;2023-07-24T02:47:51;15.10;62.20
12849;DHT22;6493;50.928;7.172;2023-07-24T02:52:55;15.10;62.20
12849;DHT22;6493;50.928;7.172;2023-07-24T02:58:00;15.10;62.30
12849;DHT22;6493;50.928;7.172;2023-07-24T03:03:04;15.10;62.40
12849;DHT22;6493;50.928;7.172;2023-07-24T03:08:08;15.10;62.60
12849;DHT22;6493;50.928;7.172;2023-07-24T03:13:13;15.10;62.50
12849;DHT22;6493;50.928;7.172;2023-07-24T03:18:16;15.10;62.50
12849;DHT22;6493;50.928;7.172;2023-07-24T03:23:20;15.10;62.50
12849;DHT22;6493;50.928;7.172;2023-07-24T03:28:25;15.00;62.40
12849;DHT22;6493;50.928;7.172;2023-07-24T03:33:29;15.00;62.50
12849;DHT22;6493;50.928;7.172;2023-07-24T03:38:34;15.00;62.50
12849;DHT22;6493;50.928;7.172;2023-07-24T03:43:39;15.00;62.50
12849;DHT22;6493;50.928;7.172;2023-07-24T03:48:43;15.00;62.50
12849;DHT22;6493;50.928;7.172;2023-07-24T03:53:47;15.00;62.50
12849;DHT22;6493;50.928;7.172;2023-07-24T03:58:52;14.90;62.50
12849;DHT22;6493;50.928;7.172;2023-07-24T04:03:56;14.90;62.70
12849;DHT22;6493;50.928;7.172;2023-07-24T04:09:00;14.90;62.70
12849;DHT22;6493;50.928;7.172;2023-07-24T04:14:05;14.90;62.70
12849;DHT22;6493;50.928;7.172;2023-07-24T04:19:08;14.90;62.80
12849;DHT22;6493;50.928;7.172;2023-07-24T04:24:12;14.90;62.80
12849;DHT22;6493;50.928;7.172;2023-07-24T04:29:17;15.00;63.20
12849;DHT22;6493;50.928;7.172;2023-07-24T04:34:25;15.00;63.10
12849;DHT22;6493;50.928;7.172;2023-07-24T04:39:29;15.00;63.10
12849;DHT22;6493;50.928;7.172;2023-07-24T04:44:34;15.00;63.40
12849;DHT22;6493;50.928;7.172;2023-07-24T04:49:38;15.00;63.30
12849;DHT22;6493;50.928;7.172;2023-07-24T04:54:41;15.00;63.40
12849;DHT22;6493;50.928;7.172;2023-07-24T04:59:46;14.90;63.40
12849;DHT22;6493;50.928;7.172;2023-07-24T05:04:50;14.90;63.50
12849;DHT22;6493;50.928;7.172;2023-07-24T05:09:54;14.90;63.50
12849;DHT22;6493;50.928;7.172;2023-07-24T05:14:59;14.90;63.60
12849;DHT22;6493;50.928;7.172;2023-07-24T05:20:03;14.90;63.80
12849;DHT22;6493;50.928;7.172;2023-07-24T05:25:07;14.90;63.60
12849;DHT22;6493;50.928;7.172;2023-07-24T05:30:13;15.00;64.10
12849;DHT22;6493;50.928;7.172;2023-07-24T05:35:17;15.00;64.10
12849;DHT22;6493;50.928;7.172;2023-07-24T05:40:21;15.00;63.90
12849;DHT22;6493;50.928;7.172;2023-07-24T05:45:26;15.10;64.10
12849;DHT22;6493;50.928;7.172;2023-07-24T05:50:30;15.20;64.50
12849;DHT22;6493;50.928;7.172;2023-07-24T05:55:33;15.30;64.50
12849;DHT22;6493;50.928;7.172;2023-07-24T06:00:38;15.50;65.30
12849;DHT22;6493;50.928;7.172;2023-07-24T06:05:42;15.70;65.60
12849;DHT22;6493;50.928;7.172;2023-07-24T06:10:46;15.90;65.10
12849;DHT22;6493;50.928;7.172;2023-07-24T06:15:52;16.00;64.70
12849;DHT22;6493;50.928;7.172;2023-07-24T06:20:56;16.00;64.50
12849;DHT22;6493;50.928;7.172;2023-07-24T06:25:59;16.00;64.80
12849;DHT22;6493;50.928;7.172;2023-07-24T06:31:04;16.10;65.00
12849;DHT22;6493;50.928;7.172;2023-07-24T06:36:09;16.30;65.00
12849;DHT22;6493;50.928;7.172;2023-07-24T06:41:12;16.40;64.80
12849;DHT22;6493;50.928;7.172;2023-07-24T06:46:19;16.50;64.50
12849;DHT22;6493;50.928;7.172;2023-07-24T06:51:22;16.40;64.00
12849;DHT22;6493;50.928;7.172;2023-07-24T06:56:26;16.40;63.90
12849;DHT22;6493;50.928;7.172;2023-07-24T07:01:31;16.40;64.50
12849;DHT22;6493;50.928;7.172;2023-07-24T07:06:35;16.30;63.60
12849;DHT22;6493;50.928;7.172;2023-07-24T07:11:40;16.30;63.70
12849;DHT22;6493;50.928;7.172;2023-07-24T07:16:46;16.30;63.90
12849;DHT22;6493;50.928;7.172;2023-07-24T07:21:51;16.30;64.30
12849;DHT22;6493;50.928;7.172;2023-07-24T07:26:54;16.40;64.50
12849;DHT22;6493;50.928;7.172;2023-07-24T07:31:59;16.60;64.80
12849;DHT22;6493;50.928;7.172;2023-07-24T07:37:03;16.70;65.30
12849;DHT22;6493;50.928;7.172;2023-07-24T07:42:07;16.90;64.50
12849;DHT22;6493;50.928;7.172;2023-07-24T07:47:21;16.90;64.20
12849;DHT22;6493;50.928;7.172;2023-07-24T07:52:24;17.00;64.10
12849;DHT22;6493;50.928;7.172;2023-07-24T07:57:28;17.00;63.90
12849;DHT22;6493;50.928;7.172;2023-07-24T08:02:33;17.00;63.90
12849;DHT22;6493;50.928;7.172;2023-07-24T08:07:37;17.00;63.90
12849;DHT22;6493;50.928;7.172;2023-07-24T08:12:41;17.10;63.90
12849;DHT22;6493;50.928;7.172;2023-07-24T08:17:46;17.20;64.20
12849;DHT22;6493;50.928;7.172;2023-07-24T08:22:49;17.30;64.50
12849;DHT22;6493;50.928;7.172;2023-07-24T08:27:53;17.50;64.50
12849;DHT22;6493;50.928;7.172;2023-07-24T08:33:03;17.70;64.00
12849;DHT22;6493;50.928;7.172;2023-07-24T08:38:07;17.70;63.30
12849;DHT22;6493;50.928;7.172;2023-07-24T08:43:12;17.80;63.10
12849;DHT22;6493;50.928;7.172;2023-07-24T08:48:19;17.80;63.60
12849;DHT22;6493;50.928;7.172;2023-07-24T08:53:23;18.00;63.70
12849;DHT22;6493;50.928;7.172;2023-07-24T08:58:27;18.20;63.90
12849;DHT22;6493;50.928;7.172;2023-07-24T09:03:33;18.60;64.00
12849;DHT22;6493;50.928;7.172;2023-07-24T09:08:38;18.80;63.20
12849;DHT22;6493;50.928;7.172;2023-07-24T09:13:42;18.90;62.30
12849;DHT22;6493;50.928;7.172;2023-07-24T09:18:49;19.00;61.90
12849;DHT22;6493;50.928;7.172;2023-07-24T09:24:13;19.00;61.30
12849;DHT22;6493;50.928;7.172;2023-07-24T09:29:18;19.00;61.30
12849;DHT22;6493;50.928;7.172;2023-07-24T09:34:23;19.00;61.40
12849;DHT22;6493;50.928;7.172;2023-07-24T09:39:28;18.90;61.20
12849;DHT22;6493;50.928;7.172;2023-07-24T09:44:32;18.90;60.90
12849;DHT22;6493;50.928;7.172;2023-07-24T09:49:37;18.90;60.70
12849;DHT22;6493;50.928;7.172;2023-07-24T09:54:49;18.80;60.90
12849;DHT22;6493;50.928;7.172;2023-07-24T09:59:58;18.90;61.40
12849;DHT22;6493;50.928;7.172;2023-07-24T10:05:07;18.80;60.70
12849;DHT22;6493;50.928;7.172;2023-07-24T10:10:12;18.80;60.80
12849;DHT22;6493;50.928;7.172;2023-07-24T10:15:16;18.90;60.80
12849;DHT22;6493;50.928;7.172;2023-07-24T10:20:21;19.00;61.40
12849;DHT22;6493;50.928;7.172;2023-07-24T10:25:29;19.20;60.80
12849;DHT22;6493;50.928;7.172;2023-07-24T10:30:34;19.50;61.00
12849;DHT22;6493;50.928;7.172;2023-07-24T10:35:42;19.70;60.60
12849;DHT22;6493;50.928;7.172;2023-07-24T10:40:47;19.90;60.70
12849;DHT22;6493;50.928;7.172;2023-07-24T10:45:52;20.10;59.90
12849;DHT22;6493;50.928;7.172;2023-07-24T10:50:57;20.40;59.40
12849;DHT22;6493;50.928;7.172;2023-07-24T10:56:01;20.60;58.80
12849;DHT22;6493;50.928;7.172;2023-07-24T11:01:06;20.80;58.00
12849;DHT22;6493;50.928;7.172;2023-07-24T11:06:17;20.80;58.00
12849;DHT22;6493;50.928;7.172;2023-07-24T11:11:20;20.80;57.60
12849;DHT22;6493;50.928;7.172;2023-07-24T11:16:25;20.60;57.50
12849;DHT22;6493;50.928;7.172;2023-07-24T11:21:30;20.60;58.10
12849;DHT22;6493;50.928;7.172;2023-07-24T11:26:34;20.50;57.80
12849;DHT22;6493;50.928;7.172;2023-07-24T11:31:38;20.60;58.20
12849;DHT22;6493;50.928;7.172;2023-07-24T11:36:43;20.70;58.20
12849;DHT22;6493;50.928;7.172;2023-07-24T11:41:47;20.70;57.50
12849;DHT22;6493;50.928;7.172;2023-07-24T11:46:51;20.70;55.90
12849;DHT22;6493;50.928;7.172;2023-07-24T11:52:03;20.60;55.80
12849;DHT22;6493;50.928;7.172;2023-07-24T11:57:14;20.40;56.50
12849;DHT22;6493;50.928;7.172;2023-07-24T12:02:18;20.20;56.70
12849;DHT22;6493;50.928;7.172;2023-07-24T12:07:29;20.10;57.20
12849;DHT22;6493;50.928;7.172;2023-07-24T12:12:37;20.10;57.10
12849;DHT22;6493;50.928;7.172;2023-07-24T12:17:41;20.00;56.90
12849;DHT22;6493;50.928;7.172;2023-07-24T12:22:47;19.80;56.60
12849;DHT22;6493;50.928;7.172;2023-07-24T12:27:51;19.60;56.80
12849;DHT22;6493;50.928;7.172;2023-07-24T12:32:54;19.20;56.80
12849;DHT22;6493;50.928;7.172;2023-07-24T12:38:00;18.90;57.20
12849;DHT22;6493;50.928;7.172;2023-07-24T12:43:03;18.60;57.80
12849;DHT22;6493;50.928;7.172;2023-07-24T12:48:07;18.40;57.60
12849;DHT22;6493;50.928;7.172;2023-07-24T12:53:12;18.10;57.40
12849;DHT22;6493;50.928;7.172;2023-07-24T12:58:27;17.90;57.90
12849;DHT22;6493;50.928;7.172;2023-07-24T13:03:31;17.80;58.20
12849;DHT22;6493;50.928;7.172;2023-07-24T13:08:36;17.70;58.40
12849;DHT22;6493;50.928;7.172;2023-07-24T13:13:39;17.60;58.40
12849;DHT22;6493;50.928;7.172;2023-07-24T13:18:43;17.50;58.60
12849;DHT22;6493;50.928;7.172;2023-07-24T13:23:48;17.40;58.80
12849;DHT22;6493;50.928;7.172;2023-07-24T13:28:52;17.50;59.60
12849;DHT22;6493;50.928;7.172;2023-07-24T13:33:56;17.70;60.00
12849;DHT22;6493;50.928;7.172;2023-07-24T13:39:01;17.90;59.80
12849;DHT22;6493;50.928;7.172;2023-07-24T13:44:05;18.00;60.30
12849;DHT22;6493;50.928;7.172;2023-07-24T13:49:08;18.20;60.40
12849;DHT22;6493;50.928;7.172;2023-07-24T13:54:14;18.30;60.10
12849;DHT22;6493;50.928;7.172;2023-07-24T13:59:17;18.40;60.00
12849;DHT22;6493;50.928;7.172;2023-07-24T14:04:21;18.40;59.90
12849;DHT22;6493;50.928;7.172;2023-07-24T14:09:26;18.30;59.80
12849;DHT22;6493;50.928;7.172;2023-07-24T14:14:30;18.30;59.80
12849;DHT22;6493;50.928;7.172;2023-07-24T14:19:34;18.20;59.70
12849;DHT22;6493;50.928;7.172;2023-07-24T14:24:39;18.10;59.60
12849;DHT22;6493;50.928;7.172;2023-07-24T14:29:42;18.00;59.60
12849;DHT22;6493;50.928;7.172;2023-07-24T14:34:49;17.90;59.70
12849;DHT22;6493;50.928;7.172;2023-07-24T14:39:54;17.80;59.80
12849;DHT22;6493;50.928;7.172;2023-07-24T14:44:58;17.70;60.10
12849;DHT22;6493;50.928;7.172;2023-07-24T14:50:05;17.70;60.70
12849;DHT22;6493;50.928;7.172;2023-07-24T14:55:11;17.70;61.10
12849;DHT22;6493;50.928;7.172;2023-07-24T15:00:15;17.70;61.10
12849;DHT22;6493;50.928;7.172;2023-07-24T15:05:19;17.80;61.10
12849;DHT22;6493;50.928;7.172;2023-07-24T15:10:25;17.80;61.10
12849;DHT22;6493;50.928;7.172;2023-07-24T15:15:28;17.80;61.20
12849;DHT22;6493;50.928;7.172;2023-07-24T15:20:32;17.80;61.20
12849;DHT22;6493;50.928;7.172;2023-07-24T15:25:37;17.80;61.10
12849;DHT22;6493;50.928;7.172;2023-07-24T15:30:41;17.80;61.20
12849;DHT22;6493;50.928;7.172;2023-07-24T15:35:44;17.90;61.30
12849;DHT22;6493;50.928;7.172;2023-07-24T15:40:49;18.00;61.40
12849;DHT22;6493;50.928;7.172;2023-07-24T15:45:53;18.00;61.40
12849;DHT22;6493;50.928;7.172;2023-07-24T15:50:57;18.00;61.40
12849;DHT22;6493;50.928;7.172;2023-07-24T15:56:02;17.90;61.30
12849;DHT22;6493;50.928;7.172;2023-07-24T16:01:08;17.90;61.30
12849;DHT22;6493;50.928;7.172;2023-07-24T16:06:11;17.80;61.20
12849;DHT22;6493;50.928;7.172;2023-07-24T16:11:16;17.80;61.20
12849;DHT22;6493;50.928;7.172;2023-07-24T16:16:20;17.80;61.30
12849;DHT22;6493;50.928;7.172;2023-07-24T16:21:24;17.80;61.20
12849;DHT22;6493;50.928;7.172;2023-07-24T16:26:31;17.80;61.20
12849;DHT22;6493;50.928;7.172;2023-07-24T16:31:35;17.80;61.20
12849;DHT22;6493;50.928;7.172;2023-07-24T16:36:38;17.80;61.20
12849;DHT22;6493;50.928;7.172;2023-07-24T16:41:44;17.80;61.20
12849;DHT22;6493;50.928;7.172;2023-07-24T16:46:47;17.80;61.20
12849;DHT22;6493;50.928;7.172;2023-07-24T16:52:11;17.80;60.90
12849;DHT22;6493;50.928;7.172;2023-07-24T16:57:16;17.70;60.70
12849;DHT22;6493;50.928;7.172;2023-07-24T17:02:20;17.70;60.70
12849;DHT22;6493;50.928;7.172;2023-07-24T17:07:23;17.70;60.80
12849;DHT22;6493;50.928;7.172;2023-07-24T17:12:28;17.60;60.40
12849;DHT22;6493;50.928;7.172;2023-07-24T17:17:32;17.60;60.30
12849;DHT22;6493;50.928;7.172;2023-07-24T17:22:36;17.50;60.00
12849;DHT22;6493;50.928;7.172;2023-07-24T17:27:41;17.40;59.80
12849;DHT22;6493;50.928;7.172;2023-07-24T17:32:45;17.20;59.50
12849;DHT22;6493;50.928;7.172;2023-07-24T17:37:49;17.00;59.20
12849;DHT22;6493;50.928;7.172;2023-07-24T17:42:54;16.80;59.20
12849;DHT22;6493;50.928;7.172;2023-07-24T17:47:57;16.60;59.30
12849;DHT22;6493;50.928;7.172;2023-07-24T17:53:05;16.30;59.40
12849;DHT22;6493;50.928;7.172;2023-07-24T17:58:10;16.10;59.40
12849;DHT22;6493;50.928;7.172;2023-07-24T18:03:13;15.90;59.30
12849;DHT22;6493;50.928;7.172;2023-07-24T18:08:17;15.70;59.30
12849;DHT22;6493;50.928;7.172;2023-07-24T18:13:22;15.50;59.40
12849;DHT22;6493;50.928;7.172;2023-07-24T18:18:26;15.40;59.70
12849;DHT22;6493;50.928;7.172;2023-07-24T18:23:30;15.30;59.70
12849;DHT22;6493;50.928;7.172;2023-07-24T18:28:35;15.20;59.90
12849;DHT22;6493;50.928;7.172;2023-07-24T18:33:38;15.20;60.10
12849;DHT22;6493;50.928;7.172;2023-07-24T18:38:42;15.10;60.10
12849;DHT22;6493;50.928;7.172;2023-07-24T18:43:47;15.10;60.40
12849;DHT22;6493;50.928;7.172;2023-07-24T18:48:51;15.10;60.40
12849;DHT22;6493;50.928;7.172;2023-07-24T18:53:54;15.00;60.40
12849;DHT22;6493;50.928;7.172;2023-07-24T18:58:59;15.00;60.40
12849;DHT22;6493;50.928;7.172;2023-07-24T19:04:03;15.00;60.50
12849;DHT22;6493;50.928;7.172;2023-07-24T19:09:07;15.00;60.50
12849;DHT22;6493;50.928;7.172;2023-07-24T19:14:12;14.90;60.40
12849;DHT22;6493;50.928;7.172;2023-07-24T19:19:15;14.90;60.50
12849;DHT22;6493;50.928;7.172;2023-07-24T19:24:19;14.80;60.40
12849;DHT22;6493;50.928;7.172;2023-07-24T19:29:24;14.70;60.50
12849;DHT22;6493;50.928;7.172;2023-07-24T19:34:28;14.70;60.60
12849;DHT22;6493;50.928;7.172;2023-07-24T19:39:31;14.70;60.80
12849;DHT22;6493;50.928;7.172;2023-07-24T19:44:37;14.60;60.80
12849;DHT22;6493;50.928;7.172;2023-07-24T19:49:41;14.60;61.00
12849;DHT22;6493;50.928;7.172;2023-07-24T19:54:45;14.60;61.00
12849;DHT22;6493;50.928;7.172;2023-07-24T19:59:50;14.60;61.00
12849;DHT22;6493;50.928;7.172;2023-07-24T20:04:53;14.60;61.10
12849;DHT22;6493;50.928;7.172;2023-07-24T20:09:57;14.60;61.10
12849;DHT22;6493;50.928;7.172;2023-07-24T20:15:04;14.60;61.10
12849;DHT22;6493;50.928;7.172;2023-07-24T20:20:08;14.60;61.30
12849;DHT22;6493;50.928;7.172;2023-07-24T20:25:12;14.50;61.20
12849;DHT22;6493;50.928;7.172;2023-07-24T20:30:17;14.50;61.20
12849;DHT22;6493;50.928;7.172;2023-07-24T20:35:21;14.50;61.30
12849;DHT22;6493;50.928;7.172;2023-07-24T20:40:25;14.50;61.40
12849;DHT22;6493;50.928;7.172;2023-07-24T20:45:30;14.50;61.50
12849;DHT22;6493;50.928;7.172;2023-07-24T20:50:34;14.50;61.40
12849;DHT22;6493;50.928;7.172;2023-07-24T20:55:38;14.50;61.40
12849;DHT22;6493;50.928;7.172;2023-07-24T21:00:43;14.40;61.30
12849;DHT22;6493;50.928;7.172;2023-07-24T21:05:47;14.40;61.40
12849;DHT22;6493;50.928;7.172;2023-07-24T21:10:50;14.40;61.50
12849;DHT22;6493;50.928;7.172;2023-07-24T21:15:55;14.40;61.60
12849;DHT22;6493;50.928;7.172;2023-07-24T21:21:00;14.30;61.60
12849;DHT22;6493;50.928;7.172;2023-07-24T21:26:06;14.30;61.60
12849;DHT22;6493;50.928;7.172;2023-07-24T21:31:11;14.30;61.70
12849;DHT22;6493;50.928;7.172;2023-07-24T21:36:15;14.30;61.80
12849;DHT22;6493;50.928;7.172;2023-07-24T21:41:19;14.30;61.80
12849;DHT22;6493;50.928;7.172;2023-07-24T21:46:24;14.20;61.70
12849;DHT22;6493;50.928;7.172;2023-07-24T21:51:27;14.20;61.80
12849;DHT22;6493;50.928;7.172;2023-07-24T21:56:31;14.20;61.80
12849;DHT22;6493;50.928;7.172;2023-07-24T22:01:36;14.20;61.80
12849;DHT22;6493;50.928;7.172;2023-07-24T22:06:40;14.10;61.90
12849;DHT22;6493;50.928;7.172;2023-07-24T22:11:43;14.10;62.00
12849;DHT22;6493;50.928;7.172;2023-07-24T22:16:50;14.10;62.00
12849;DHT22;6493;50.928;7.172;2023-07-24T22:21:53;14.00;62.20
12849;DHT22;6493;50.928;7.172;2023-07-24T22:26:57;14.00;62.20
12849;DHT22;6493;50.928;7.172;2023-07-24T22:32:02;14.00;62.20
12849;DHT22;6493;50.928;7.172;2023-07-24T22:37:06;14.00;62.30
12849;DHT22;6493;50.928;7.172;2023-07-24T22:42:10;14.00;62.40
12849;DHT22;6493;50.928;7.172;2023-07-24T22:47:15;14.00;62.50
12849;DHT22;6493;50.928;7.172;2023-07-24T22:52:18;14.00;62.60
12849;DHT22;6493;50.928;7.172;2023-07-24T22:57:23;13.90;62.50
12849;DHT22;6493;50.928;7.172;2023-07-24T23:02:28;13.90;62.50
12849;DHT22;6493;50.928;7.172;2023-07-24T23:07:31;13.90;62.50
12849;DHT22;6493;50.928;7.172;2023-07-24T23:12:35;13.90;62.50
12849;DHT22;6493;50.928;7.172;2023-07-24T23:17:40;13.90;62.70
12849;DHT22;6493;50.928;7.172;2023-07-24T23:22:44;13.90;62.70
12849;DHT22;6493;50.928;7.172;2023-07-24T23:27:48;13.90;62.70
12849;DHT22;6493;50.928;7.172;2023-07-24T23:32:53;13.90;62.70
12849;DHT22;6493;50.928;7.172;2023-07-24T23:37:57;13.90;62.80
12849;DHT22;6493;50.928;7.172;2023-07-24T23:43:00;13.90;62.80
12849;DHT22;6493;50.928;7.172;2023-07-24T23:48:05;13.80;63.60
12849;DHT22;6493;50.928;7.172;2023-07-24T23:53:09;13.80;63.00
12849;DHT22;6493;50.928;7.172;2023-07-24T23:58:13;13.80;62.90
